Guarapuava, Brazil
Current Conditions -  °F | °C
As of 6:00 PM on Saturday 25 Oct 2014 (Local Time) from SBCA Reporting Station
Scattered Clouds Scattered Clouds  
Wind Chill: 81°   Ceiling: Unl
Heat Index: 83°   Visibility: 6mi
Dew Point: 68°   Wind: 23mph
Humidity: 65%   Direction: 20°NNE
Pressure: 29.91"   Gusts: NA
Location:  25.38°S, 51.48°W
Report Text: SBCA 252000Z 02020KT 9999 SCT023 FEW040TCU 27/20 Q1013
Loading
Personal Weather Stations






























Interactive Weather Map
Tropical Storm Tracking
New forecast layout! Learn more

10-Day Weather Forecast

Advertisements
Track Severe Weather on mobile